createdAt,value
2023-04-18T00:00:57.671Z,25.87
2023-04-18T00:06:01.130Z,26.57
2023-04-18T00:11:04.340Z,24.47
2023-04-18T00:16:09.046Z,23.27
2023-04-18T00:21:13.781Z,23.57
2023-04-18T00:26:17.184Z,24.37
2023-04-18T00:31:20.430Z,24.00
2023-04-18T00:36:23.680Z,25.27
2023-04-18T00:41:28.701Z,24.33
2023-04-18T00:46:32.023Z,24.63
2023-04-18T00:51:36.343Z,22.33
2023-04-18T00:56:39.911Z,24.63
2023-04-18T01:01:44.089Z,23.57
2023-04-18T01:06:47.379Z,24.10
2023-04-18T01:11:50.551Z,24.03
2023-04-18T01:16:54.074Z,20.00
2023-04-18T01:21:57.442Z,19.63
2023-04-18T01:27:02.286Z,21.33
2023-04-18T01:32:06.172Z,23.00
2023-04-18T01:37:09.501Z,23.03
2023-04-18T01:42:12.685Z,27.47
2023-04-18T01:47:15.855Z,22.70
2023-04-18T01:52:19.705Z,21.43
2023-04-18T01:57:22.993Z,22.43
2023-04-18T02:02:26.448Z,20.47
2023-04-18T02:07:29.992Z,21.70
2023-04-18T02:12:34.710Z,18.67
2023-04-18T02:17:38.365Z,21.57
2023-04-18T02:22:42.081Z,18.47
2023-04-18T02:27:45.701Z,20.40
2023-04-18T02:32:54.682Z,18.20
2023-04-18T02:37:58.072Z,21.43
2023-04-18T02:43:02.919Z,21.00
2023-04-18T02:48:06.300Z,22.60
2023-04-18T02:53:09.630Z,23.53
2023-04-18T02:58:13.156Z,21.97
2023-04-18T03:03:16.805Z,21.27
2023-04-18T03:08:20.541Z,21.13
2023-04-18T03:13:23.792Z,17.07
2023-04-18T03:18:27.457Z,22.27
2023-04-18T03:23:30.979Z,22.53
2023-04-18T03:28:34.542Z,21.07
2023-04-18T03:33:39.553Z,20.70
2023-04-18T03:38:42.931Z,22.23
2023-04-18T03:43:46.399Z,21.50
2023-04-18T03:48:49.876Z,23.27
2023-04-18T03:53:53.453Z,20.57
2023-04-18T03:58:56.734Z,19.30
2023-04-18T04:04:00.435Z,22.70
2023-04-18T04:09:04.039Z,22.90
2023-04-18T04:14:07.517Z,24.23
2023-04-18T04:19:11.097Z,23.13
2023-04-18T04:24:14.390Z,25.23
2023-04-18T04:29:19.350Z,22.00
2023-04-18T04:34:22.551Z,22.97
2023-04-18T04:39:25.943Z,21.83
2023-04-18T04:44:29.788Z,21.23
2023-04-18T04:49:33.084Z,22.17
2023-04-18T04:54:36.601Z,19.77
2023-04-18T04:59:39.851Z,29.00
2023-04-18T05:04:43.209Z,21.53
2023-04-18T05:09:46.497Z,22.43
2023-04-18T05:14:50.061Z,24.33
2023-04-18T05:19:53.287Z,23.27
2023-04-18T05:24:56.978Z,23.77
2023-04-18T05:30:00.203Z,29.67
2023-04-18T05:35:03.710Z,23.97
2023-04-18T05:40:07.484Z,23.77
2023-04-18T05:45:11.079Z,23.80
2023-04-18T05:50:14.597Z,26.27
2023-04-18T05:55:17.822Z,21.40
2023-04-18T06:00:21.468Z,26.00
2023-04-18T06:05:24.938Z,23.93
2023-04-18T06:10:28.273Z,25.30
2023-04-18T06:15:31.931Z,28.83
2023-04-18T06:20:36.025Z,25.93
2023-04-18T06:25:42.211Z,23.30
2023-04-18T06:30:45.843Z,28.37
2023-04-18T06:35:49.266Z,28.50
2023-04-18T06:40:52.592Z,27.50
2023-04-18T06:45:56.922Z,28.07
2023-04-18T06:51:00.019Z,25.40
2023-04-18T06:56:03.260Z,27.03
2023-04-18T07:01:06.574Z,32.23
2023-04-18T07:06:10.999Z,28.63
2023-04-18T07:11:14.213Z,22.93
2023-04-18T07:16:17.779Z,24.90
2023-04-18T07:21:21.026Z,27.80
2023-04-18T07:26:24.420Z,24.97
2023-04-18T07:31:28.984Z,22.43
2023-04-18T07:36:32.532Z,23.20
2023-04-18T07:41:36.141Z,24.87
2023-04-18T07:46:39.451Z,25.70
2023-04-18T07:51:42.701Z,25.37
2023-04-18T07:56:46.262Z,22.00
2023-04-18T08:01:49.555Z,26.23
2023-04-18T08:06:52.978Z,23.00
2023-04-18T08:11:59.854Z,22.03
2023-04-18T08:17:03.773Z,22.93
2023-04-18T08:22:11.250Z,24.03
2023-04-18T08:27:14.581Z,20.53
2023-04-18T08:32:17.759Z,24.80
2023-04-18T08:37:20.897Z,24.23
2023-04-18T08:42:24.572Z,20.63
2023-04-18T08:47:30.353Z,21.33
2023-04-18T08:52:36.548Z,24.67
2023-04-18T08:57:40.200Z,22.23
2023-04-18T09:02:45.258Z,20.30
2023-04-18T09:07:50.374Z,21.97
2023-04-18T09:12:53.967Z,22.40
2023-04-18T09:18:00.113Z,19.20
2023-04-18T09:23:05.986Z,17.83
2023-04-18T09:28:24.416Z,16.80
2023-04-18T09:33:29.467Z,19.10
2023-04-18T09:38:42.223Z,17.33
2023-04-18T09:43:47.011Z,17.87
2023-04-18T09:48:50.278Z,18.53
2023-04-18T09:53:53.830Z,18.83
2023-04-18T09:59:08.962Z,17.40
2023-04-18T10:04:13.105Z,15.17
2023-04-18T10:09:16.951Z,18.00
2023-04-18T10:14:20.760Z,16.90
2023-04-18T10:19:26.343Z,16.87
2023-04-18T10:24:50.798Z,15.13
2023-04-18T10:29:54.601Z,16.50
2023-04-18T10:35:01.119Z,18.07
2023-04-18T10:40:07.405Z,18.20
2023-04-18T10:45:21.935Z,14.03
2023-04-18T10:50:25.079Z,14.97
2023-04-18T10:55:31.291Z,13.03
2023-04-18T11:00:34.821Z,15.37
2023-04-18T11:05:38.281Z,16.43
2023-04-18T11:10:41.876Z,17.73
2023-04-18T11:15:44.987Z,17.07
2023-04-18T11:20:50.059Z,16.83
2023-04-18T11:25:56.767Z,15.60
2023-04-18T11:31:02.336Z,16.57
2023-04-18T11:36:06.041Z,14.63
2023-04-18T11:41:20.272Z,14.47
2023-04-18T11:46:23.464Z,17.13
2023-04-18T11:51:44.003Z,14.43
2023-04-18T11:56:50.574Z,18.47
2023-04-18T12:02:14.679Z,15.60
2023-04-18T12:07:35.154Z,15.93
2023-04-18T12:12:52.024Z,16.00
2023-04-18T12:18:08.639Z,16.53
2023-04-18T12:23:40.802Z,13.67
2023-04-18T12:28:46.893Z,14.00
2023-04-18T12:33:51.282Z,15.97
2023-04-18T12:38:54.959Z,14.90
2023-04-18T12:43:57.942Z,13.67
2023-04-18T12:49:01.265Z,16.70
2023-04-18T12:54:04.606Z,15.03
2023-04-18T12:59:08.534Z,15.47
2023-04-18T13:04:15.119Z,15.47
2023-04-18T13:09:18.429Z,14.37
2023-04-18T13:14:21.957Z,15.87
2023-04-18T13:19:25.563Z,14.20
2023-04-18T13:24:28.811Z,15.70
2023-04-18T13:29:32.172Z,15.30
2023-04-18T13:34:38.673Z,16.50
2023-04-18T13:39:42.314Z,14.07
2023-04-18T13:44:46.572Z,14.40
2023-04-18T13:49:53.172Z,11.70
2023-04-18T13:54:56.417Z,18.55
2023-04-18T13:59:59.659Z,13.43
2023-04-18T14:05:02.832Z,18.17
2023-04-18T14:10:06.746Z,15.10
2023-04-18T14:15:10.846Z,16.83
2023-04-18T14:20:16.337Z,15.07
2023-04-18T14:25:19.720Z,17.87
2023-04-18T14:30:23.214Z,16.00
2023-04-18T14:35:26.515Z,14.77
2023-04-18T14:40:32.608Z,15.90
2023-04-18T14:45:36.233Z,12.10
2023-04-18T14:50:39.641Z,12.83
2023-04-18T14:55:45.134Z,14.57
2023-04-18T15:00:49.427Z,13.53
2023-04-18T15:05:53.559Z,14.30
2023-04-18T15:10:57.090Z,11.97
2023-04-18T15:16:03.588Z,13.88
2023-04-18T15:21:06.845Z,12.27
2023-04-18T15:26:10.172Z,13.13
2023-04-18T15:31:14.771Z,12.98
2023-04-18T15:36:17.962Z,17.07
2023-04-18T15:41:21.722Z,18.67
2023-04-18T15:46:25.463Z,15.93
2023-04-18T15:51:29.027Z,12.97
2023-04-18T15:56:33.622Z,15.67
2023-04-18T16:01:37.135Z,17.37
2023-04-18T16:06:41.121Z,13.37
2023-04-18T16:11:44.259Z,16.90
2023-04-18T16:16:47.735Z,30.17
2023-04-18T16:21:51.327Z,14.87
2023-04-18T16:26:55.929Z,14.70
2023-04-18T16:31:59.194Z,15.70
2023-04-18T16:37:05.501Z,15.13
2023-04-18T16:42:10.740Z,15.27
2023-04-18T16:47:16.900Z,14.07
2023-04-18T16:52:21.254Z,15.60
2023-04-18T16:57:24.786Z,12.97
2023-04-18T17:02:30.672Z,14.83
2023-04-18T17:07:35.787Z,17.93
2023-04-18T17:12:41.888Z,15.20
2023-04-18T17:17:48.573Z,16.33
2023-04-18T17:22:52.575Z,15.33
2023-04-18T17:27:57.346Z,16.77
2023-04-18T17:33:01.734Z,11.97
2023-04-18T17:38:06.335Z,13.83
2023-04-18T17:43:12.110Z,13.67
2023-04-18T17:48:19.179Z,14.03
2023-04-18T17:53:26.170Z,15.13
2023-04-18T17:58:32.073Z,12.87
2023-04-18T18:03:42.403Z,16.00
2023-04-18T18:08:47.716Z,11.57
2023-04-18T18:13:54.973Z,12.97
2023-04-18T18:19:00.207Z,11.63
2023-04-18T18:24:04.786Z,15.00
2023-04-18T18:29:12.134Z,13.93
2023-04-18T18:34:18.141Z,14.90
2023-04-18T18:39:23.025Z,17.67
2023-04-18T18:44:29.968Z,15.27
2023-04-18T18:49:35.698Z,16.77
2023-04-18T18:54:41.148Z,15.20
2023-04-18T18:59:47.259Z,14.20
2023-04-18T19:04:54.597Z,14.13
2023-04-18T19:10:03.266Z,10.87
2023-04-18T19:15:08.322Z,10.83
2023-04-18T19:20:13.743Z,8.73
2023-04-18T19:25:20.115Z,10.97
2023-04-18T19:30:31.905Z,14.47
2023-04-18T19:35:39.232Z,10.50
2023-04-18T19:40:44.444Z,10.23
2023-04-18T19:45:49.109Z,10.50
2023-04-18T19:50:53.662Z,10.63
2023-04-18T19:56:02.442Z,8.87
2023-04-18T20:01:09.368Z,9.87
2023-04-18T20:06:14.950Z,10.37
2023-04-18T20:11:21.805Z,7.27
2023-04-18T20:16:29.495Z,7.23
2023-04-18T20:21:35.460Z,8.87
2023-04-18T20:26:40.032Z,7.47
2023-04-18T20:31:44.592Z,8.20
2023-04-18T20:36:48.459Z,8.33
2023-04-18T20:41:54.322Z,6.63
2023-04-18T20:47:02.241Z,15.37
2023-04-18T20:52:10.770Z,7.57
2023-04-18T20:57:14.225Z,6.10
2023-04-18T21:02:18.106Z,7.37
2023-04-18T21:07:21.991Z,8.07
2023-04-18T21:12:25.319Z,11.30
2023-04-18T21:17:29.051Z,9.83
2023-04-18T21:22:32.295Z,6.53
2023-04-18T21:27:36.401Z,7.07
2023-04-18T21:32:40.408Z,7.20
2023-04-18T21:37:43.739Z,8.63
2023-04-18T21:42:48.156Z,8.33
2023-04-18T21:47:53.072Z,6.57
2023-04-18T21:52:56.578Z,7.67
2023-04-18T21:57:59.820Z,9.17
2023-04-18T22:03:03.169Z,7.93
2023-04-18T22:08:06.651Z,8.67
2023-04-18T22:13:10.419Z,6.60
2023-04-18T22:18:14.600Z,6.40
2023-04-18T22:23:17.958Z,6.13
2023-04-18T22:28:23.209Z,8.10
2023-04-18T22:33:26.799Z,8.47
2023-04-18T22:38:30.093Z,7.53
2023-04-18T22:43:33.679Z,7.47
2023-04-18T22:48:37.098Z,5.07
2023-04-18T22:53:40.290Z,6.53
2023-04-18T22:58:43.435Z,4.67
2023-04-18T23:03:47.013Z,5.10
2023-04-18T23:08:50.755Z,5.13
2023-04-18T23:13:54.014Z,8.17
2023-04-18T23:18:57.154Z,7.40
2023-04-18T23:24:00.826Z,5.27
2023-04-18T23:29:04.114Z,7.60
2023-04-18T23:34:07.395Z,6.73
2023-04-18T23:39:10.683Z,7.43
2023-04-18T23:44:14.274Z,7.40
2023-04-18T23:49:17.671Z,6.87
2023-04-18T23:54:20.793Z,6.33
2023-04-18T23:59:24.054Z,6.00
